Time;durP1;ratioP1;P1;durP2;ratioP2;P2;SDS_P1;SDS_P2;PMS_P1;PMS_P2;Temp;Humidity;BMP_temperature;BMP_pressure;BME280_temperature;BME280_humidity;BME280_pressure;Samples;Min_cycle;Max_cycle;Signal;HPM_P1;HPM_P2
2023/10/23 00:02:11;;;;;;;;;;;19.30;1.00;;;;;;4976973;28;19930;-58
2023/10/23 00:04:38;;;;;;;;;;;19.30;1.00;;;;;;4978747;28;20020;-59
2023/10/23 00:07:05;;;;;;;;;;;19.20;1.00;;;;;;4974329;28;20314;-59
2023/10/23 00:09:32;;;;;;;;;;;19.20;1.00;;;;;;4976333;28;20490;-59
2023/10/23 00:11:59;;;;;;;;;;;19.20;1.00;;;;;;4978701;28;20016;-59
2023/10/23 00:14:25;;;;;;;;;;;19.20;1.00;;;;;;4974912;28;20013;-57
2023/10/23 00:16:52;;;;;;;;;;;19.20;1.00;;;;;;4979195;28;20020;-58
2023/10/23 00:19:19;;;;;;;;;;;19.20;1.00;;;;;;4973881;28;19930;-58
2023/10/23 00:21:46;;;;;;;;;;;19.20;1.00;;;;;;4976556;28;19925;-59
2023/10/23 00:24:12;;;;;;;;;;;19.20;1.00;;;;;;4971440;28;20039;-59
2023/10/23 00:26:39;;;;;;;;;;;19.10;1.00;;;;;;4975678;28;19968;-59
2023/10/23 00:29:06;;;;;;;;;;;19.10;1.00;;;;;;4975993;28;20292;-60
2023/10/23 00:31:33;;;;;;;;;;;19.10;1.00;;;;;;4957083;28;20916;-56
2023/10/23 00:33:59;;;;;;;;;;;19.10;1.00;;;;;;4976977;28;19961;-59
2023/10/23 00:36:26;;;;;;;;;;;19.10;1.00;;;;;;4975422;28;19969;-58
2023/10/23 00:38:53;;;;;;;;;;;19.10;1.00;;;;;;4957262;28;19930;-59
2023/10/23 00:41:19;;;;;;;;;;;19.00;1.00;;;;;;4969293;28;19933;-59
2023/10/23 00:43:46;;;;;;;;;;;19.00;1.00;;;;;;4954934;28;19926;-59
2023/10/23 00:46:19;;;;;;;;;;;19.00;1.00;;;;;;4975045;28;19937;-59
2023/10/23 00:48:46;;;;;;;;;;;19.10;1.00;;;;;;4976577;28;19949;-60
2023/10/23 00:51:14;;;;;;;;;;;19.00;1.00;;;;;;4954921;28;19930;-59
2023/10/23 00:53:42;;;;;;;;;;;19.00;1.00;;;;;;4958335;28;20380;-59
2023/10/23 00:56:09;;;;;;;;;;;19.00;1.00;;;;;;4960916;28;19926;-59
2023/10/23 00:58:40;;;;;;;;;;;19.00;1.00;;;;;;4968925;28;19937;-60
2023/10/23 01:01:10;;;;;;;;;;;19.00;1.00;;;;;;4971868;28;20029;-59
2023/10/23 01:03:37;;;;;;;;;;;19.00;1.00;;;;;;4976951;28;20391;-59
2023/10/23 01:06:03;;;;;;;;;;;18.90;1.00;;;;;;4971243;28;19930;-59
2023/10/23 01:08:30;;;;;;;;;;;18.90;1.00;;;;;;4957740;28;19973;-58
2023/10/23 01:10:58;;;;;;;;;;;18.90;1.00;;;;;;4941471;28;19961;-60
2023/10/23 01:13:25;;;;;;;;;;;18.90;1.00;;;;;;4941437;28;19926;-59
2023/10/23 01:15:52;;;;;;;;;;;18.90;1.00;;;;;;4972890;28;19926;-60
2023/10/23 01:18:19;;;;;;;;;;;18.90;1.00;;;;;;4955787;28;20020;-60
2023/10/23 01:20:46;;;;;;;;;;;18.90;1.00;;;;;;4958568;28;20067;-60
2023/10/23 01:23:13;;;;;;;;;;;18.80;1.00;;;;;;4953335;28;20020;-59
2023/10/23 01:25:41;;;;;;;;;;;18.80;1.00;;;;;;4955797;28;20045;-58
2023/10/23 01:28:08;;;;;;;;;;;18.80;1.00;;;;;;4957230;28;19967;-58
2023/10/23 01:30:34;;;;;;;;;;;18.80;1.00;;;;;;4967158;28;20034;-60
2023/10/23 01:33:01;;;;;;;;;;;18.80;1.00;;;;;;4971277;28;19984;-58
2023/10/23 01:35:28;;;;;;;;;;;18.80;1.00;;;;;;4959914;28;19933;-58
2023/10/23 01:37:55;;;;;;;;;;;18.80;1.00;;;;;;4952787;28;20268;-60
2023/10/23 01:40:23;;;;;;;;;;;18.80;1.00;;;;;;4971585;28;19930;-58
2023/10/23 01:42:49;;;;;;;;;;;18.80;1.00;;;;;;4973700;28;19932;-60
2023/10/23 01:45:18;;;;;;;;;;;18.70;1.00;;;;;;4955211;28;19925;-58
2023/10/23 01:47:46;;;;;;;;;;;18.70;1.00;;;;;;4973029;28;19973;-59
2023/10/23 01:50:12;;;;;;;;;;;18.70;1.00;;;;;;4954873;28;19976;-59
2023/10/23 01:52:41;;;;;;;;;;;18.70;1.00;;;;;;4954865;28;19926;-59
2023/10/23 01:55:09;;;;;;;;;;;18.70;1.00;;;;;;4955380;28;20426;-59
2023/10/23 01:57:36;;;;;;;;;;;18.70;1.00;;;;;;4957236;28;19949;-60
2023/10/23 02:00:04;;;;;;;;;;;18.70;1.00;;;;;;4955891;28;20772;-59
2023/10/23 02:02:41;;;;;;;;;;;18.60;1.00;;;;;;4955828;28;20008;-58
2023/10/23 02:05:08;;;;;;;;;;;18.60;1.00;;;;;;4973872;28;19949;-59
2023/10/23 02:07:34;;;;;;;;;;;18.60;1.00;;;;;;4955017;28;19926;-58
2023/10/23 02:10:01;;;;;;;;;;;18.60;1.00;;;;;;4971749;28;19959;-55
2023/10/23 02:12:28;;;;;;;;;;;18.60;1.00;;;;;;4955187;28;19992;-59
2023/10/23 02:14:55;;;;;;;;;;;18.60;1.00;;;;;;4975218;28;19930;-57
2023/10/23 02:17:22;;;;;;;;;;;18.60;1.00;;;;;;4968538;28;20360;-58
2023/10/23 02:19:49;;;;;;;;;;;18.60;1.00;;;;;;4975590;28;19952;-60
2023/10/23 02:22:18;;;;;;;;;;;18.60;1.00;;;;;;4959005;28;19934;-60
2023/10/23 02:24:45;;;;;;;;;;;18.50;1.00;;;;;;4972518;28;19983;-58
2023/10/23 02:27:12;;;;;;;;;;;18.50;1.00;;;;;;4955357;28;19981;-60
2023/10/23 02:29:40;;;;;;;;;;;18.50;1.00;;;;;;4971286;28;20013;-59
2023/10/23 02:32:08;;;;;;;;;;;18.50;1.00;;;;;;4969024;28;19930;-60
2023/10/23 02:34:35;;;;;;;;;;;18.50;1.00;;;;;;4973565;28;19958;-60
2023/10/23 02:37:02;;;;;;;;;;;18.50;1.00;;;;;;4976730;28;20323;-60
2023/10/23 02:39:29;;;;;;;;;;;18.50;1.00;;;;;;4952190;28;20443;-60
2023/10/23 02:41:56;;;;;;;;;;;18.50;1.00;;;;;;4973298;28;19933;-60
2023/10/23 02:44:22;;;;;;;;;;;18.50;1.00;;;;;;4973621;28;19926;-58
2023/10/23 02:46:49;;;;;;;;;;;18.50;1.00;;;;;;4975268;28;19933;-59
2023/10/23 02:49:18;;;;;;;;;;;18.50;1.00;;;;;;4955457;28;20384;-59
2023/10/23 02:51:46;;;;;;;;;;;18.50;1.00;;;;;;4974021;28;19930;-60
2023/10/23 02:54:13;;;;;;;;;;;18.40;1.00;;;;;;4970966;28;19933;-60
2023/10/23 02:56:40;;;;;;;;;;;18.40;1.00;;;;;;4958637;28;19930;-60
2023/10/23 02:59:06;;;;;;;;;;;18.40;1.00;;;;;;4971970;28;20040;-57
2023/10/23 03:01:34;;;;;;;;;;;18.40;1.00;;;;;;4972125;28;19930;-60
2023/10/23 03:04:01;;;;;;;;;;;18.40;1.00;;;;;;4953934;28;19933;-58
2023/10/23 03:06:28;;;;;;;;;;;18.40;1.00;;;;;;4970343;28;20414;-60
2023/10/23 03:08:57;;;;;;;;;;;18.40;1.00;;;;;;4958968;28;19947;-59
2023/10/23 03:11:25;;;;;;;;;;;18.40;1.00;;;;;;4970546;28;20356;-59
2023/10/23 03:13:52;;;;;;;;;;;18.40;1.00;;;;;;4975750;28;19961;-59
2023/10/23 03:16:19;;;;;;;;;;;18.40;1.00;;;;;;4974001;28;19945;-58
2023/10/23 03:18:46;;;;;;;;;;;18.40;1.00;;;;;;4971521;28;19930;-58
2023/10/23 03:21:12;;;;;;;;;;;18.30;1.00;;;;;;4957989;28;19934;-59
2023/10/23 03:23:39;;;;;;;;;;;18.30;1.00;;;;;;4970867;28;20040;-60
2023/10/23 03:26:06;;;;;;;;;;;18.30;1.00;;;;;;4973097;28;19965;-56
2023/10/23 03:28:32;;;;;;;;;;;18.30;1.00;;;;;;4967384;28;19938;-60
2023/10/23 03:31:00;;;;;;;;;;;18.30;1.00;;;;;;4971920;28;19930;-58
2023/10/23 03:33:26;;;;;;;;;;;18.30;1.00;;;;;;4956537;28;19932;-59
2023/10/23 03:35:53;;;;;;;;;;;18.30;1.00;;;;;;4974697;28;19942;-56
2023/10/23 03:38:20;;;;;;;;;;;18.30;1.00;;;;;;4969313;28;19930;-60
2023/10/23 03:40:56;;;;;;;;;;;18.30;1.00;;;;;;4974748;28;19933;-59
2023/10/23 03:43:23;;;;;;;;;;;18.20;1.00;;;;;;4977559;28;20387;-58
2023/10/23 03:45:50;;;;;;;;;;;18.20;1.00;;;;;;4955794;28;19926;-59
2023/10/23 03:48:17;;;;;;;;;;;18.20;1.00;;;;;;4976242;28;19949;-58
2023/10/23 03:50:44;;;;;;;;;;;18.20;1.00;;;;;;4977724;28;19926;-60
2023/10/23 03:53:10;;;;;;;;;;;18.20;1.00;;;;;;4974185;28;19926;-59
2023/10/23 03:55:37;;;;;;;;;;;18.20;1.00;;;;;;4978972;28;20410;-59
2023/10/23 03:58:04;;;;;;;;;;;18.20;1.00;;;;;;4977173;28;19985;-58
2023/10/23 04:00:31;;;;;;;;;;;18.20;1.00;;;;;;4980643;28;19948;-59
2023/10/23 04:02:58;;;;;;;;;;;18.20;1.00;;;;;;4978129;28;20664;-59
2023/10/23 04:05:24;;;;;;;;;;;18.20;1.00;;;;;;4975870;28;19977;-58
2023/10/23 04:07:51;;;;;;;;;;;18.20;1.00;;;;;;4974605;28;19932;-60
2023/10/23 04:10:18;;;;;;;;;;;18.20;1.00;;;;;;4968993;28;20404;-60
2023/10/23 04:12:45;;;;;;;;;;;18.20;1.00;;;;;;4973541;28;19926;-58
2023/10/23 04:15:11;;;;;;;;;;;18.20;1.00;;;;;;4975672;28;20356;-58
2023/10/23 04:17:38;;;;;;;;;;;18.10;1.00;;;;;;4978636;28;19949;-59
2023/10/23 04:20:05;;;;;;;;;;;18.10;1.00;;;;;;4975561;28;20007;-57
2023/10/23 04:22:32;;;;;;;;;;;18.10;1.00;;;;;;4970455;28;19926;-59
2023/10/23 04:24:58;;;;;;;;;;;18.10;1.00;;;;;;4973161;28;19933;-59
2023/10/23 04:27:25;;;;;;;;;;;18.10;1.00;;;;;;4966307;28;19964;-57
2023/10/23 04:29:53;;;;;;;;;;;18.10;1.00;;;;;;4973578;28;19926;-59
2023/10/23 04:32:20;;;;;;;;;;;18.10;1.00;;;;;;4977452;28;19926;-60
2023/10/23 04:34:46;;;;;;;;;;;18.10;1.00;;;;;;4975810;28;19934;-58
2023/10/23 04:37:13;;;;;;;;;;;18.10;1.00;;;;;;4971450;28;20372;-59
2023/10/23 04:39:40;;;;;;;;;;;18.10;1.00;;;;;;4972912;28;20008;-59
2023/10/23 04:42:07;;;;;;;;;;;18.10;1.00;;;;;;4969570;28;19930;-57
2023/10/23 04:44:36;;;;;;;;;;;18.00;1.00;;;;;;4976968;28;20292;-59
2023/10/23 04:47:03;;;;;;;;;;;18.10;1.00;;;;;;4976549;28;19942;-59
2023/10/23 04:49:30;;;;;;;;;;;18.00;1.00;;;;;;4976049;28;22113;-59
2023/10/23 04:51:57;;;;;;;;;;;18.00;1.00;;;;;;4972462;28;19945;-57
2023/10/23 04:54:23;;;;;;;;;;;18.00;1.00;;;;;;4975599;28;19930;-59
2023/10/23 04:56:50;;;;;;;;;;;18.00;1.00;;;;;;4971560;28;20064;-57
2023/10/23 04:59:17;;;;;;;;;;;18.00;1.00;;;;;;4974742;28;19945;-58
2023/10/23 05:01:44;;;;;;;;;;;18.00;1.00;;;;;;4973672;28;20037;-59
2023/10/23 05:04:11;;;;;;;;;;;18.00;1.00;;;;;;4971464;28;19934;-59
2023/10/23 05:06:38;;;;;;;;;;;18.00;1.00;;;;;;4980339;28;19930;-60
2023/10/23 05:09:05;;;;;;;;;;;18.00;1.00;;;;;;4978673;28;19972;-59
2023/10/23 05:11:32;;;;;;;;;;;18.00;1.00;;;;;;4973651;28;19933;-60
2023/10/23 05:13:59;;;;;;;;;;;18.00;1.00;;;;;;4975193;28;19961;-60
2023/10/23 05:16:26;;;;;;;;;;;18.00;1.00;;;;;;4979988;28;20398;-58
2023/10/23 05:18:53;;;;;;;;;;;18.00;1.00;;;;;;4972436;28;19926;-60
2023/10/23 05:21:20;;;;;;;;;;;17.90;1.00;;;;;;4974168;28;19941;-60
2023/10/23 05:23:46;;;;;;;;;;;17.90;1.00;;;;;;4972290;28;20013;-59
2023/10/23 05:26:14;;;;;;;;;;;17.90;1.00;;;;;;4976164;28;19926;-60
2023/10/23 05:28:41;;;;;;;;;;;17.90;1.00;;;;;;4973812;28;19930;-58
2023/10/23 05:31:09;;;;;;;;;;;17.90;1.00;;;;;;4972201;28;20324;-60
2023/10/23 05:33:36;;;;;;;;;;;17.90;1.00;;;;;;4976100;28;19984;-59
2023/10/23 05:36:04;;;;;;;;;;;17.90;1.00;;;;;;4974840;28;19937;-59
2023/10/23 05:38:31;;;;;;;;;;;17.90;1.00;;;;;;4971144;28;19926;-60
2023/10/23 05:40:58;;;;;;;;;;;17.90;1.00;;;;;;4971801;28;19930;-60
2023/10/23 05:43:26;;;;;;;;;;;17.90;1.00;;;;;;4972570;28;19977;-59
2023/10/23 05:45:53;;;;;;;;;;;17.90;1.00;;;;;;4974307;28;19926;-60
2023/10/23 05:48:20;;;;;;;;;;;17.90;1.00;;;;;;4970034;28;20002;-59
2023/10/23 05:50:57;;;;;;;;;;;17.80;1.00;;;;;;4977394;28;19926;-58
2023/10/23 05:53:24;;;;;;;;;;;17.80;1.00;;;;;;4973765;28;19934;-60
2023/10/23 05:55:51;;;;;;;;;;;17.80;1.00;;;;;;4972586;28;19926;-58
2023/10/23 05:58:17;;;;;;;;;;;17.80;1.00;;;;;;4974358;28;19926;-60
2023/10/23 06:00:44;;;;;;;;;;;17.80;1.00;;;;;;4974075;28;19936;-59
2023/10/23 06:03:11;;;;;;;;;;;17.80;1.00;;;;;;4971765;28;19930;-58
2023/10/23 06:05:41;;;;;;;;;;;17.80;1.00;;;;;;4976017;28;19926;-59
2023/10/23 06:08:08;;;;;;;;;;;17.80;1.00;;;;;;4979130;28;19930;-59
2023/10/23 06:10:45;;;;;;;;;;;17.80;1.00;;;;;;4974092;28;19925;-58
2023/10/23 06:13:11;;;;;;;;;;;17.80;1.00;;;;;;4976532;28;20301;-60
2023/10/23 06:15:38;;;;;;;;;;;17.80;1.00;;;;;;4972000;28;20470;-59
2023/10/23 06:18:06;;;;;;;;;;;17.80;1.00;;;;;;4976756;28;19930;-56
2023/10/23 06:20:33;;;;;;;;;;;17.80;1.00;;;;;;4954630;28;19926;-60
2023/10/23 06:23:00;;;;;;;;;;;17.70;1.00;;;;;;4971264;28;19942;-60
2023/10/23 06:25:29;;;;;;;;;;;17.70;1.00;;;;;;4976196;28;19941;-60
2023/10/23 06:27:56;;;;;;;;;;;17.80;1.00;;;;;;4971889;28;20380;-58
2023/10/23 06:30:23;;;;;;;;;;;17.80;1.00;;;;;;4972641;28;19932;-60
2023/10/23 06:32:50;;;;;;;;;;;17.70;1.00;;;;;;4970872;28;20411;-60
2023/10/23 06:35:17;;;;;;;;;;;17.70;1.00;;;;;;4975031;28;20435;-58
2023/10/23 06:37:44;;;;;;;;;;;17.70;1.00;;;;;;4972961;28;19933;-59
2023/10/23 06:40:11;;;;;;;;;;;17.70;1.00;;;;;;4976118;28;19926;-58
2023/10/23 06:42:37;;;;;;;;;;;17.70;1.00;;;;;;4970752;28;20288;-57
2023/10/23 06:45:05;;;;;;;;;;;17.70;1.00;;;;;;4972338;28;20310;-60
2023/10/23 06:47:32;;;;;;;;;;;17.70;1.00;;;;;;4972104;28;19926;-59
2023/10/23 06:49:59;;;;;;;;;;;17.70;1.00;;;;;;4973044;28;19930;-57
2023/10/23 06:52:26;;;;;;;;;;;17.70;1.00;;;;;;4972763;28;19953;-59
2023/10/23 06:54:53;;;;;;;;;;;17.70;1.00;;;;;;4977092;28;19961;-60
2023/10/23 06:57:19;;;;;;;;;;;17.70;1.00;;;;;;4974184;28;19934;-58
2023/10/23 06:59:46;;;;;;;;;;;17.70;1.00;;;;;;4973757;28;19962;-60
2023/10/23 07:02:13;;;;;;;;;;;17.60;1.00;;;;;;4977167;28;19926;-60
2023/10/23 07:04:40;;;;;;;;;;;17.60;1.00;;;;;;4972064;28;20434;-59
2023/10/23 07:07:06;;;;;;;;;;;17.60;1.00;;;;;;4972949;28;19925;-58
2023/10/23 07:09:56;;;;;;;;;;;17.60;1.00;;;;;;4971036;28;19930;-59
2023/10/23 07:12:23;;;;;;;;;;;17.60;1.00;;;;;;4977212;28;20316;-58
2023/10/23 07:14:50;;;;;;;;;;;17.60;1.00;;;;;;4975781;28;20018;-60
2023/10/23 07:17:17;;;;;;;;;;;17.60;1.00;;;;;;4974668;28;20375;-57
2023/10/23 07:19:43;;;;;;;;;;;17.60;1.00;;;;;;4977922;28;20021;-59
2023/10/23 07:22:10;;;;;;;;;;;17.60;1.00;;;;;;4977793;28;19926;-57
2023/10/23 07:24:37;;;;;;;;;;;17.60;1.00;;;;;;4977447;28;19926;-59
2023/10/23 07:27:04;;;;;;;;;;;17.60;1.00;;;;;;4980225;28;19937;-59
2023/10/23 07:29:30;;;;;;;;;;;17.60;1.00;;;;;;4960920;28;20015;-58
2023/10/23 07:31:58;;;;;;;;;;;17.60;1.00;;;;;;4977474;28;20025;-60
2023/10/23 07:34:25;;;;;;;;;;;17.60;1.00;;;;;;4978544;28;19930;-59
2023/10/23 07:36:51;;;;;;;;;;;17.60;1.00;;;;;;4974314;28;19926;-60
2023/10/23 07:39:18;;;;;;;;;;;17.60;1.00;;;;;;4974052;28;19929;-59
2023/10/23 07:41:45;;;;;;;;;;;17.60;1.00;;;;;;4974039;28;20005;-57
2023/10/23 07:44:12;;;;;;;;;;;17.60;1.00;;;;;;4975924;28;19926;-60
2023/10/23 07:46:39;;;;;;;;;;;17.50;1.00;;;;;;4976025;28;19964;-60
2023/10/23 07:49:06;;;;;;;;;;;17.50;1.00;;;;;;4973497;28;19930;-60
2023/10/23 07:51:32;;;;;;;;;;;17.50;1.00;;;;;;4976787;28;19925;-59
2023/10/23 07:53:59;;;;;;;;;;;17.50;1.00;;;;;;4975127;28;19930;-60
2023/10/23 07:56:26;;;;;;;;;;;17.50;1.00;;;;;;4974791;28;19926;-58
2023/10/23 07:58:53;;;;;;;;;;;17.50;1.00;;;;;;4977923;28;19969;-58
2023/10/23 08:01:19;;;;;;;;;;;17.50;1.00;;;;;;4976954;28;20384;-58
2023/10/23 08:03:47;;;;;;;;;;;17.50;1.00;;;;;;4974619;28;19926;-60
2023/10/23 08:06:14;;;;;;;;;;;17.50;1.00;;;;;;4978079;28;20296;-60
2023/10/23 08:08:41;;;;;;;;;;;17.50;1.00;;;;;;4978010;28;20296;-59
2023/10/23 08:11:09;;;;;;;;;;;17.50;1.00;;;;;;4976923;28;19930;-59
2023/10/23 08:13:36;;;;;;;;;;;17.50;1.00;;;;;;4972917;28;19930;-60
2023/10/23 08:16:03;;;;;;;;;;;17.50;1.00;;;;;;4977210;28;19930;-58
2023/10/23 08:18:31;;;;;;;;;;;17.50;1.00;;;;;;4977969;28;19942;-59
2023/10/23 08:21:14;;;;;;;;;;;17.50;1.00;;;;;;4974921;28;19926;-59
2023/10/23 08:23:42;;;;;;;;;;;17.50;1.00;;;;;;4972429;28;19934;-58
2023/10/23 08:26:08;;;;;;;;;;;17.50;1.00;;;;;;4975190;28;20395;-58
2023/10/23 08:28:35;;;;;;;;;;;17.50;1.00;;;;;;4976768;28;19973;-59
2023/10/23 08:31:05;;;;;;;;;;;17.50;1.00;;;;;;4974337;28;19932;-59
2023/10/23 08:33:42;;;;;;;;;;;17.50;1.00;;;;;;4956631;28;20062;-59
2023/10/23 08:36:09;;;;;;;;;;;17.50;1.00;;;;;;4972759;28;20283;-59
2023/10/23 08:38:36;;;;;;;;;;;17.50;1.00;;;;;;4976555;28;20021;-60
2023/10/23 08:41:03;;;;;;;;;;;17.50;1.00;;;;;;4977879;28;19930;-60
2023/10/23 08:43:32;;;;;;;;;;;17.50;1.00;;;;;;4977941;28;19934;-60
2023/10/23 08:46:02;;;;;;;;;;;17.50;1.00;;;;;;4975090;28;19937;-59
2023/10/23 08:48:29;;;;;;;;;;;17.50;1.00;;;;;;4973248;28;20037;-57
2023/10/23 08:50:57;;;;;;;;;;;17.50;1.00;;;;;;4976825;28;19925;-59
2023/10/23 08:53:31;;;;;;;;;;;17.50;1.00;;;;;;4976525;28;20045;-58
2023/10/23 08:55:58;;;;;;;;;;;17.50;1.00;;;;;;4976837;28;19934;-59
2023/10/23 08:58:26;;;;;;;;;;;17.50;1.00;;;;;;4976882;28;20359;-60
2023/10/23 09:00:53;;;;;;;;;;;17.50;1.00;;;;;;4974379;28;19926;-58
2023/10/23 09:03:22;;;;;;;;;;;17.50;1.00;;;;;;4976504;28;19989;-59
2023/10/23 09:06:09;;;;;;;;;;;17.50;1.00;;;;;;4978312;28;19941;-59
2023/10/23 09:08:37;;;;;;;;;;;17.60;1.00;;;;;;4974982;28;19941;-59
2023/10/23 09:11:04;;;;;;;;;;;17.60;1.00;;;;;;4975795;28;19926;-58
2023/10/23 09:13:36;;;;;;;;;;;17.60;1.00;;;;;;4975286;28;19930;-59
2023/10/23 09:16:05;;;;;;;;;;;17.60;1.00;;;;;;4978134;28;19936;-58
2023/10/23 09:18:32;;;;;;;;;;;17.60;1.00;;;;;;4973535;28;19933;-59
2023/10/23 09:20:59;;;;;;;;;;;17.60;1.00;;;;;;4972225;28;20018;-59
2023/10/23 09:23:27;;;;;;;;;;;17.60;1.00;;;;;;4971726;28;19930;-58
2023/10/23 09:25:58;;;;;;;;;;;17.60;1.00;;;;;;4974477;28;19932;-57
2023/10/23 09:28:28;;;;;;;;;;;17.60;1.00;;;;;;4977398;28;20504;-58
2023/10/23 09:30:55;;;;;;;;;;;17.70;1.00;;;;;;4975055;28;19941;-58
2023/10/23 09:33:22;;;;;;;;;;;17.70;1.00;;;;;;4977127;28;20310;-59
2023/10/23 09:35:49;;;;;;;;;;;17.70;1.00;;;;;;4970729;28;19926;-56
2023/10/23 09:38:16;;;;;;;;;;;17.70;1.00;;;;;;4971497;28;19926;-59
2023/10/23 09:40:46;;;;;;;;;;;17.70;1.00;;;;;;4972130;28;19941;-58
2023/10/23 09:43:13;;;;;;;;;;;17.80;1.00;;;;;;4972607;28;19933;-59
2023/10/23 09:45:41;;;;;;;;;;;17.70;1.00;;;;;;4974094;28;20032;-58
2023/10/23 09:48:10;;;;;;;;;;;17.70;1.00;;;;;;4976273;28;20450;-59
2023/10/23 09:50:37;;;;;;;;;;;17.80;1.00;;;;;;4974683;28;19930;-59
2023/10/23 09:53:06;;;;;;;;;;;17.80;1.00;;;;;;4972589;28;19930;-58
2023/10/23 09:55:35;;;;;;;;;;;17.80;1.00;;;;;;4975237;28;19933;-57
2023/10/23 09:58:05;;;;;;;;;;;17.80;1.00;;;;;;4975460;28;19926;-59
2023/10/23 10:00:33;;;;;;;;;;;17.80;1.00;;;;;;4973725;28;19930;-58
2023/10/23 10:03:04;;;;;;;;;;;17.80;1.00;;;;;;4975139;28;20610;-58
2023/10/23 10:05:56;;;;;;;;;;;17.90;1.00;;;;;;4972611;28;19930;-59
2023/10/23 10:08:23;;;;;;;;;;;17.90;1.00;;;;;;4974576;28;20345;-59
2023/10/23 10:10:50;;;;;;;;;;;17.90;1.00;;;;;;4973362;28;20030;-58
2023/10/23 10:13:18;;;;;;;;;;;17.90;1.00;;;;;;4976120;28;19932;-57
2023/10/23 10:15:45;;;;;;;;;;;17.90;1.00;;;;;;4976159;28;19926;-61
2023/10/23 10:18:16;;;;;;;;;;;17.90;1.00;;;;;;4976451;28;19930;-59
2023/10/23 10:20:45;;;;;;;;;;;17.90;1.00;;;;;;4973934;28;19926;-59
2023/10/23 10:23:12;;;;;;;;;;;17.90;1.00;;;;;;4973305;28;19926;-58
2023/10/23 10:25:40;;;;;;;;;;;17.90;1.00;;;;;;4974372;28;20037;-58
2023/10/23 10:28:07;;;;;;;;;;;17.90;1.00;;;;;;4955081;28;20494;-59
2023/10/23 10:30:40;;;;;;;;;;;18.00;1.00;;;;;;4973814;28;19926;-59
2023/10/23 10:33:07;;;;;;;;;;;18.00;1.00;;;;;;4974871;28;19926;-59
2023/10/23 10:35:58;;;;;;;;;;;18.00;1.00;;;;;;4969174;28;19963;-59
2023/10/23 10:38:26;;;;;;;;;;;18.00;1.00;;;;;;4976744;28;20000;-59
2023/10/23 10:41:03;;;;;;;;;;;18.00;1.00;;;;;;4975115;28;19937;-57
2023/10/23 10:43:31;;;;;;;;;;;18.00;1.00;;;;;;4974114;28;19934;-59
2023/10/23 10:45:59;;;;;;;;;;;18.00;1.00;;;;;;4973792;28;19935;-58
2023/10/23 10:48:39;;;;;;;;;;;18.00;1.00;;;;;;4973360;28;19933;-59
2023/10/23 10:51:06;;;;;;;;;;;18.00;1.00;;;;;;4975611;28;19934;-58
2023/10/23 10:53:34;;;;;;;;;;;18.00;1.00;;;;;;4978456;28;19930;-59
2023/10/23 10:56:00;;;;;;;;;;;18.00;1.00;;;;;;4977895;28;19926;-58
2023/10/23 10:58:27;;;;;;;;;;;18.00;1.00;;;;;;4977629;28;20053;-59
2023/10/23 11:00:54;;;;;;;;;;;18.00;1.00;;;;;;4979256;28;20411;-58
2023/10/23 11:03:21;;;;;;;;;;;18.00;1.00;;;;;;4974822;28;19926;-58
2023/10/23 11:05:47;;;;;;;;;;;18.10;1.00;;;;;;4981191;28;19976;-59
2023/10/23 11:08:14;;;;;;;;;;;18.00;1.00;;;;;;4978230;28;20375;-58
2023/10/23 11:10:41;;;;;;;;;;;18.10;1.00;;;;;;4976899;28;19926;-57
2023/10/23 11:13:12;;;;;;;;;;;18.10;1.00;;;;;;4978959;28;20279;-58
2023/10/23 11:15:39;;;;;;;;;;;18.10;1.00;;;;;;4978717;28;19984;-58
2023/10/23 11:18:05;;;;;;;;;;;18.10;1.00;;;;;;4976880;28;19934;-59
2023/10/23 11:20:34;;;;;;;;;;;18.10;1.00;;;;;;4980921;28;19926;-59
2023/10/23 11:23:01;;;;;;;;;;;18.10;1.00;;;;;;4976898;28;19941;-59
2023/10/23 11:25:28;;;;;;;;;;;18.10;1.00;;;;;;4982304;28;20271;-59
2023/10/23 11:27:54;;;;;;;;;;;18.10;1.00;;;;;;4974381;28;20008;-59
2023/10/23 11:30:24;;;;;;;;;;;18.10;1.00;;;;;;4971589;28;19930;-56
2023/10/23 11:32:51;;;;;;;;;;;18.10;1.00;;;;;;4979196;28;20361;-56
2023/10/23 11:35:17;;;;;;;;;;;18.10;1.00;;;;;;4978674;28;19930;-58
2023/10/23 11:37:44;;;;;;;;;;;18.10;1.00;;;;;;4978411;28;19925;-56
2023/10/23 11:40:11;;;;;;;;;;;18.10;1.00;;;;;;4975064;28;20384;-58
2023/10/23 11:42:54;;;;;;;;;;;18.10;1.00;;;;;;4977981;28;19937;-58
2023/10/23 11:45:21;;;;;;;;;;;18.10;1.00;;;;;;4977201;28;19941;-58
2023/10/23 11:47:51;;;;;;;;;;;18.10;1.00;;;;;;4979033;28;19966;-58
2023/10/23 11:50:18;;;;;;;;;;;18.10;1.00;;;;;;4975732;28;19926;-58
2023/10/23 11:52:48;;;;;;;;;;;18.10;1.00;;;;;;4973919;28;20633;-60
2023/10/23 11:55:16;;;;;;;;;;;18.10;1.00;;;;;;4974339;28;19930;-60
2023/10/23 11:57:46;;;;;;;;;;;18.10;1.00;;;;;;4981696;28;19933;-58
2023/10/23 12:00:14;;;;;;;;;;;18.10;1.00;;;;;;4978022;28;19925;-60
2023/10/23 12:02:42;;;;;;;;;;;18.10;1.00;;;;;;4978351;28;19976;-60
2023/10/23 12:05:13;;;;;;;;;;;18.10;1.00;;;;;;4978921;28;19930;-60
2023/10/23 12:07:40;;;;;;;;;;;18.10;1.00;;;;;;4976344;28;19930;-60
2023/10/23 12:10:09;;;;;;;;;;;18.10;1.00;;;;;;4976142;28;20025;-60
2023/10/23 12:12:37;;;;;;;;;;;18.10;1.00;;;;;;4975636;28;19942;-58
2023/10/23 12:15:04;;;;;;;;;;;18.10;1.00;;;;;;4977327;28;19926;-60
2023/10/23 12:17:30;;;;;;;;;;;18.10;1.00;;;;;;4978786;28;19941;-59
2023/10/23 12:19:57;;;;;;;;;;;18.10;1.00;;;;;;4979355;28;19934;-58
2023/10/23 12:22:24;;;;;;;;;;;18.10;1.00;;;;;;4976479;28;19957;-59
2023/10/23 12:24:51;;;;;;;;;;;18.10;1.00;;;;;;4973287;28;19930;-60
2023/10/23 12:27:18;;;;;;;;;;;18.10;1.00;;;;;;4955886;28;19933;-60
2023/10/23 12:29:44;;;;;;;;;;;18.10;1.00;;;;;;4973536;28;20416;-58
2023/10/23 12:32:13;;;;;;;;;;;18.10;1.00;;;;;;4978137;28;19930;-60
2023/10/23 12:35:03;;;;;;;;;;;18.10;1.00;;;;;;4975132;28;19981;-60
2023/10/23 12:37:30;;;;;;;;;;;18.10;1.00;;;;;;4974843;28;20025;-60
2023/10/23 12:40:00;;;;;;;;;;;18.10;1.00;;;;;;4973804;28;20505;-60
2023/10/23 12:42:28;;;;;;;;;;;18.00;1.00;;;;;;4977239;28;20508;-58
2023/10/23 12:44:55;;;;;;;;;;;18.00;1.00;;;;;;4974999;28;20020;-60
2023/10/23 12:47:23;;;;;;;;;;;18.00;1.00;;;;;;4972989;28;19957;-58
2023/10/23 12:49:50;;;;;;;;;;;18.00;1.00;;;;;;4955817;28;19942;-60
2023/10/23 12:52:17;;;;;;;;;;;18.00;1.00;;;;;;4977604;28;20410;-59
2023/10/23 12:54:44;;;;;;;;;;;18.00;1.00;;;;;;4973377;28;20056;-59
2023/10/23 12:57:11;;;;;;;;;;;18.00;1.00;;;;;;4977863;28;19940;-59
2023/10/23 12:59:37;;;;;;;;;;;18.00;1.00;;;;;;4974924;28;19926;-60
2023/10/23 13:02:04;;;;;;;;;;;18.10;1.00;;;;;;4972342;28;19930;-60
2023/10/23 13:04:31;;;;;;;;;;;18.00;1.00;;;;;;4973566;28;19930;-59
2023/10/23 13:06:58;;;;;;;;;;;18.00;1.00;;;;;;4978518;28;19968;-60
2023/10/23 13:09:25;;;;;;;;;;;18.00;1.00;;;;;;4974172;28;19934;-59
2023/10/23 13:11:52;;;;;;;;;;;18.00;1.00;;;;;;4973797;28;19929;-60
2023/10/23 13:14:19;;;;;;;;;;;18.00;1.00;;;;;;4971862;28;19930;-60
2023/10/23 13:16:46;;;;;;;;;;;18.00;1.00;;;;;;4975665;28;20060;-58
2023/10/23 13:19:13;;;;;;;;;;;18.00;1.00;;;;;;4974470;28;19932;-60
2023/10/23 13:21:39;;;;;;;;;;;18.00;1.00;;;;;;4973374;28;19932;-59
2023/10/23 13:24:06;;;;;;;;;;;18.00;1.00;;;;;;4973642;28;19957;-60
2023/10/23 13:26:37;;;;;;;;;;;18.00;1.00;;;;;;4976629;28;19926;-60
2023/10/23 13:29:04;;;;;;;;;;;18.00;1.00;;;;;;4974889;28;19940;-60
2023/10/23 13:31:31;;;;;;;;;;;18.00;1.00;;;;;;4976495;28;20022;-60
2023/10/23 13:33:58;;;;;;;;;;;18.00;1.00;;;;;;4971525;28;19932;-59
2023/10/23 13:36:24;;;;;;;;;;;18.00;1.00;;;;;;4972113;28;19933;-59
2023/10/23 13:38:51;;;;;;;;;;;18.00;1.00;;;;;;4972637;28;19934;-60
2023/10/23 13:41:18;;;;;;;;;;;18.00;1.00;;;;;;4975714;28;20262;-58
2023/10/23 13:43:45;;;;;;;;;;;18.00;1.00;;;;;;4976900;28;19925;-60
2023/10/23 13:46:11;;;;;;;;;;;18.00;1.00;;;;;;4975254;28;19933;-57
2023/10/23 13:48:38;;;;;;;;;;;18.00;1.00;;;;;;4975387;28;19984;-57
2023/10/23 13:51:05;;;;;;;;;;;18.00;1.00;;;;;;4974298;28;19934;-60
2023/10/23 13:53:32;;;;;;;;;;;18.00;1.00;;;;;;4973803;28;19980;-60
2023/10/23 13:55:59;;;;;;;;;;;18.00;1.00;;;;;;4976027;28;19936;-59
2023/10/23 13:58:26;;;;;;;;;;;18.00;1.00;;;;;;4970065;28;20435;-60
2023/10/23 14:00:53;;;;;;;;;;;18.00;1.00;;;;;;4975961;28;19992;-58
2023/10/23 14:03:19;;;;;;;;;;;18.00;1.00;;;;;;4976398;28;19927;-59
2023/10/23 14:05:46;;;;;;;;;;;18.00;1.00;;;;;;4973186;28;19950;-58
2023/10/23 14:08:13;;;;;;;;;;;18.00;1.00;;;;;;4971838;28;20017;-60
2023/10/23 14:10:40;;;;;;;;;;;18.00;1.00;;;;;;4972269;28;19926;-59
2023/10/23 14:13:07;;;;;;;;;;;18.00;1.00;;;;;;4971089;28;20306;-60
2023/10/23 14:15:33;;;;;;;;;;;18.00;1.00;;;;;;4973922;28;19926;-60
2023/10/23 14:18:00;;;;;;;;;;;18.00;1.00;;;;;;4972835;28;19929;-60
2023/10/23 14:20:27;;;;;;;;;;;18.00;1.00;;;;;;4976381;28;20037;-60
2023/10/23 14:22:54;;;;;;;;;;;18.00;1.00;;;;;;4969941;28;19926;-59
2023/10/23 14:25:21;;;;;;;;;;;18.00;1.00;;;;;;4979514;28;19933;-60
2023/10/23 14:27:47;;;;;;;;;;;17.90;1.00;;;;;;4955882;28;20343;-60
2023/10/23 14:30:14;;;;;;;;;;;17.90;1.00;;;;;;4975114;28;19933;-60
2023/10/23 14:32:42;;;;;;;;;;;17.90;1.00;;;;;;4971726;28;20462;-58
2023/10/23 14:35:09;;;;;;;;;;;17.90;1.00;;;;;;4953294;28;19936;-59